Time;durP1;ratioP1;P1;durP2;ratioP2;P2;SDS_P1;SDS_P2;PMS_P1;PMS_P2;Temp;Humidity;BMP_temperature;BMP_pressure;BME280_temperature;BME280_humidity;BME280_pressure;Samples;Min_cycle;Max_cycle;Signal;HPM_P1;HPM_P2
2021/03/02 00:01:12;;;;;;;92.97;47.92;;;77.70;2227.20;;;;;;5031955;28;20033;-54
2021/03/02 00:03:38;;;;;;;53.63;31.02;;;77.70;2227.20;;;;;;5032310;28;20021;-56
2021/03/02 00:06:08;;;;;;;37.72;20.02;;;77.60;2227.20;;;;;;5032093;28;20383;-56
2021/03/02 00:08:38;;;;;;;28.80;17.98;;;77.50;2227.20;;;;;;5032071;28;20060;-50
2021/03/02 00:11:05;;;;;;;30.73;18.08;;;77.50;2227.20;;;;;;5031812;28;20044;-51
2021/03/02 00:13:31;;;;;;;41.03;21.15;;;77.40;2227.20;;;;;;5032293;28;20022;-56
2021/03/02 00:16:01;;;;;;;32.78;18.30;;;77.40;2227.20;;;;;;5032232;28;20029;-54
2021/03/02 00:18:32;;;;;;;45.03;25.33;;;77.30;2227.20;;;;;;5032003;28;20049;-58
2021/03/02 00:21:23;;;;;;;40.38;22.15;;;77.20;2227.20;;;;;;5031913;28;20029;-57
2021/03/02 00:23:53;;;;;;;26.98;17.33;;;77.20;2227.20;;;;;;5031300;28;20549;-54
2021/03/02 00:26:22;;;;;;;42.83;23.75;;;77.20;2227.20;;;;;;5031928;28;20032;-55
2021/03/02 00:28:50;;;;;;;40.60;23.65;;;77.20;2227.20;;;;;;5031665;28;20032;-56
2021/03/02 00:31:16;;;;;;;36.63;21.35;;;77.10;2227.20;;;;;;5031519;28;20026;-56
2021/03/02 00:33:45;;;;;;;33.03;21.17;;;77.00;2227.20;;;;;;5031177;28;20533;-56
2021/03/02 00:36:11;;;;;;;71.55;42.40;;;77.00;2227.20;;;;;;5031424;28;20116;-52
2021/03/02 00:38:37;;;;;;;48.15;28.35;;;77.20;2227.20;;;;;;5031461;28;20583;-57
2021/03/02 00:41:03;;;;;;;48.60;29.30;;;77.30;2227.20;;;;;;5031145;28;20074;-56
2021/03/02 00:43:29;;;;;;;48.92;26.88;;;77.30;2227.20;;;;;;5031454;28;20029;-56
2021/03/02 00:45:55;;;;;;;52.38;29.58;;;77.30;2227.20;;;;;;5031296;28;20100;-56
2021/03/02 00:48:21;;;;;;;42.25;22.40;;;77.30;2227.20;;;;;;5031285;28;20554;-56
2021/03/02 00:50:47;;;;;;;35.33;21.88;;;77.20;2227.20;;;;;;5031267;28;20045;-56
2021/03/02 00:53:13;;;;;;;39.30;22.23;;;77.20;2227.20;;;;;;5031013;28;20342;-56
2021/03/02 00:55:38;;;;;;;38.08;22.65;;;77.20;2227.20;;;;;;5031193;28;20025;-56
2021/03/02 00:58:04;;;;;;;49.53;29.90;;;77.10;2227.20;;;;;;5030792;28;20030;-55
2021/03/02 01:00:30;;;;;;;37.50;22.02;;;77.20;2227.20;;;;;;5031177;28;20035;-56
2021/03/02 01:02:56;;;;;;;40.72;24.27;;;77.10;2227.20;;;;;;5030958;28;20383;-55
2021/03/02 01:05:22;;;;;;;37.63;22.95;;;77.20;2227.20;;;;;;5031002;28;20030;-56
2021/03/02 01:07:48;;;;;;;38.72;23.98;;;77.30;2227.20;;;;;;5030877;28;20045;-56
2021/03/02 01:10:14;;;;;;;57.08;31.15;;;77.20;2227.20;;;;;;5012934;28;20029;-56
2021/03/02 01:12:40;;;;;;;39.03;21.65;;;77.30;2227.20;;;;;;5031096;28;20055;-56
2021/03/02 01:15:08;;;;;;;54.28;30.48;;;77.20;2227.20;;;;;;5013160;28;20037;-56
2021/03/02 01:17:34;;;;;;;48.00;27.05;;;77.30;2227.20;;;;;;5030211;28;20472;-57
2021/03/02 01:20:00;;;;;;;48.90;27.65;;;77.40;2227.20;;;;;;5030604;28;20056;-56
2021/03/02 01:22:26;;;;;;;55.08;35.17;;;77.40;2227.20;;;;;;5030393;28;20033;-56
2021/03/02 01:24:51;;;;;;;38.58;21.60;;;77.50;2227.20;;;;;;5030654;28;20029;-53
2021/03/02 01:27:17;;;;;;;41.70;26.02;;;77.40;2227.20;;;;;;5030478;28;20030;-56
2021/03/02 01:29:43;;;;;;;41.95;25.98;;;77.40;2227.20;;;;;;5030317;28;20033;-55
2021/03/02 01:32:09;;;;;;;37.58;22.65;;;77.30;2227.20;;;;;;5030629;28;20124;-57
2021/03/02 01:34:36;;;;;;;36.35;22.42;;;77.30;2227.20;;;;;;5030334;28;20025;-56
2021/03/02 01:37:02;;;;;;;40.83;23.90;;;77.30;2227.20;;;;;;5029929;28;20467;-55
2021/03/02 01:39:29;;;;;;;43.88;24.17;;;77.40;2227.20;;;;;;5030624;28;20028;-56
2021/03/02 01:41:57;;;;;;;45.75;21.50;;;77.60;2227.20;;;;;;5012406;28;20036;-56
2021/03/02 01:44:25;;;;;;;41.03;22.75;;;77.60;2227.20;;;;;;5029544;28;20518;-56
2021/03/02 01:46:51;;;;;;;88.78;46.30;;;77.50;2227.20;;;;;;5030278;28;20040;-56
2021/03/02 01:49:18;;;;;;;60.13;34.03;;;77.40;2227.20;;;;;;5030433;28;20026;-55
2021/03/02 01:51:44;;;;;;;70.65;40.88;;;77.20;2227.20;;;;;;5030033;28;20029;-56
2021/03/02 01:54:12;;;;;;;73.63;36.10;;;77.40;2227.20;;;;;;5030393;28;20032;-57
2021/03/02 01:56:37;;;;;;;75.47;39.17;;;77.40;2227.20;;;;;;5030064;28;20037;-55
2021/03/02 01:59:04;;;;;;;43.28;23.58;;;77.20;2227.20;;;;;;5030107;28;20040;-56
2021/03/02 02:01:30;;;;;;;41.88;24.48;;;77.10;2227.20;;;;;;5030184;28;20033;-56
2021/03/02 02:04:21;;;;;;;102.85;55.22;;;77.00;2227.20;;;;;;5029886;28;20484;-56
2021/03/02 02:07:00;;;;;;;36.95;22.10;;;77.20;2227.20;;;;;;5030076;28;20064;-55
2021/03/02 02:09:42;;;;;;;40.55;22.55;;;76.90;2227.20;;;;;;5029971;28;20447;-55
2021/03/02 02:12:45;;;;;;;39.30;20.92;;;52.00;2227.20;;;;;;5030009;28;20464;-56
2021/03/02 02:15:15;;;;;;;62.50;34.28;;;76.90;2227.20;;;;;;4988522;28;20382;-50
2021/03/02 02:18:01;;;;;;;52.45;29.45;;;77.10;2227.20;;;;;;4988457;28;20069;-50
2021/03/02 02:20:48;;;;;;;38.78;21.90;;;77.00;2227.20;;;;;;4988548;28;20493;-50
2021/03/02 02:23:14;;;;;;;39.40;20.75;;;76.90;2227.20;;;;;;4988324;28;20026;-51
2021/03/02 02:26:03;;;;;;;45.85;27.67;;;76.80;2227.20;;;;;;4988369;28;20074;-50
2021/03/02 02:28:31;;;;;;;39.13;23.77;;;76.90;2227.20;;;;;;4949517;29;20148;-56
2021/03/02 02:31:00;;;;;;;41.05;23.67;;;52.10;2227.20;;;;;;4949775;29;20048;-55
2021/03/02 02:33:32;;;;;;;49.70;31.00;;;52.10;2227.20;;;;;;4949571;28;20430;-56
2021/03/02 02:36:01;;;;;;;41.08;23.08;;;51.60;2227.20;;;;;;4949657;28;20036;-56
2021/03/02 02:38:29;;;;;;;39.28;23.10;;;51.40;2227.20;;;;;;4949667;29;20553;-56
2021/03/02 02:40:56;;;;;;;41.83;23.17;;;51.30;2227.20;;;;;;4949383;29;20031;-53
2021/03/02 02:43:23;;;;;;;35.65;20.00;;;51.40;2227.20;;;;;;4949547;29;20047;-56
2021/03/02 02:45:50;;;;;;;34.50;20.55;;;51.60;2227.20;;;;;;4949718;29;20465;-57
2021/03/02 02:48:17;;;;;;;32.53;19.30;;;51.50;2227.20;;;;;;4949398;29;20425;-56
2021/03/02 02:50:46;;;;;;;46.30;26.50;;;51.50;2227.20;;;;;;4959328;28;20089;-56
2021/03/02 02:53:14;;;;;;;54.13;28.77;;;51.80;2227.20;;;;;;4968686;28;20460;-55
2021/03/02 02:55:57;;;;;;;34.42;18.95;;;52.00;2227.20;;;;;;4969210;28;20089;-57
2021/03/02 02:58:28;;;;;;;36.70;20.08;;;51.90;2227.20;;;;;;4972324;28;20092;-56
2021/03/02 03:00:56;;;;;;;36.40;20.48;;;51.90;2227.20;;;;;;4972399;28;20066;-56
2021/03/02 03:03:25;;;;;;;41.42;26.67;;;51.80;2227.20;;;;;;4972382;28;20026;-56
2021/03/02 03:05:58;;;;;;;39.50;21.75;;;51.90;2227.20;;;;;;5013323;28;20116;-57
2021/03/02 03:08:30;;;;;;;41.38;25.35;;;52.10;2227.20;;;;;;5033371;28;20029;-56
2021/03/02 03:10:59;;;;;;;27.75;18.45;;;52.10;2227.20;;;;;;5032959;28;20073;-56
2021/03/02 03:13:28;;;;;;;34.90;20.38;;;51.90;2227.20;;;;;;5032996;28;20026;-55
2021/03/02 03:15:58;;;;;;;34.95;20.15;;;51.70;2227.20;;;;;;5032988;28;20028;-56
2021/03/02 03:18:40;;;;;;;34.40;19.95;;;51.50;2227.20;;;;;;5032820;28;20148;-51
2021/03/02 03:21:06;;;;;;;37.10;20.30;;;51.50;2227.20;;;;;;5033034;28;20024;-57
2021/03/02 03:23:31;;;;;;;34.45;19.30;;;51.40;2227.20;;;;;;5033060;28;20471;-53
2021/03/02 03:25:58;;;;;;;37.10;20.55;;;51.50;2227.20;;;;;;5032827;28;20468;-58
2021/03/02 03:28:25;;;;;;;30.50;19.33;;;51.50;2227.20;;;;;;5032726;28;20021;-57
2021/03/02 03:30:52;;;;;;;32.28;18.48;;;51.50;2227.20;;;;;;5033202;28;20036;-57
2021/03/02 03:33:20;;;;;;;37.83;22.10;;;51.70;2227.20;;;;;;5032777;28;20476;-57
2021/03/02 03:35:46;;;;;;;36.47;20.90;;;51.70;2227.20;;;;;;5032478;28;20479;-56
2021/03/02 03:38:11;;;;;;;38.85;22.15;;;51.80;2227.20;;;;;;5032657;28;20129;-51
2021/03/02 03:40:38;;;;;;;37.53;22.63;;;51.80;2227.20;;;;;;5032669;28;20025;-56
2021/03/02 03:43:04;;;;;;;33.88;19.60;;;51.90;2227.20;;;;;;5014629;28;20534;-56
2021/03/02 03:45:30;;;;;;;41.80;20.25;;;52.00;2227.20;;;;;;5032535;28;20032;-56
2021/03/02 03:47:59;;;;;;;28.95;18.10;;;51.90;2227.20;;;;;;5032562;28;20025;-55
2021/03/02 03:50:25;;;;;;;33.55;19.25;;;51.80;2227.20;;;;;;5032493;28;20021;-56
2021/03/02 03:53:03;;;;;;;34.80;19.65;;;51.80;2227.20;;;;;;5032752;28;20113;-56
2021/03/02 03:55:37;;;;;;;39.38;22.88;;;51.60;2227.20;;;;;;5032263;28;20372;-57
2021/03/02 03:58:03;;;;;;;40.20;23.23;;;51.70;2227.20;;;;;;5031878;28;20060;-56
2021/03/02 04:00:30;;;;;;;33.13;19.88;;;51.80;2227.20;;;;;;5032273;28;20039;-56
2021/03/02 04:02:56;;;;;;;40.85;26.70;;;51.90;2227.20;;;;;;5032245;28;20411;-56
2021/03/02 04:05:22;;;;;;;37.45;21.33;;;51.90;2227.20;;;;;;5032334;28;20032;-55
2021/03/02 04:07:49;;;;;;;33.85;21.50;;;51.80;2227.20;;;;;;5031496;28;20029;-57
2021/03/02 04:10:16;;;;;;;31.33;17.65;;;51.90;2227.20;;;;;;5031910;28;20105;-56
2021/03/02 04:12:46;;;;;;;35.35;19.55;;;51.90;2227.20;;;;;;5032031;28;20060;-57
2021/03/02 04:15:16;;;;;;;35.13;20.42;;;51.90;2227.20;;;;;;5031896;28;20100;-52
2021/03/02 04:17:53;;;;;;;34.08;19.67;;;51.90;2227.20;;;;;;5013999;28;20368;-53
2021/03/02 04:20:20;;;;;;;37.83;20.40;;;51.70;2227.20;;;;;;5032063;28;20049;-54
2021/03/02 04:22:45;;;;;;;31.88;19.60;;;51.60;2227.20;;;;;;5031733;28;20033;-52
2021/03/02 04:25:12;;;;;;;33.67;22.92;;;51.70;2227.20;;;;;;5031715;28;20025;-51
2021/03/02 04:27:38;;;;;;;36.83;21.70;;;51.80;2227.20;;;;;;5037734;28;20057;-52
2021/03/02 04:30:05;;;;;;;34.55;19.88;;;51.70;2227.20;;;;;;5051510;28;20032;-52
2021/03/02 04:32:31;;;;;;;38.97;22.45;;;51.70;2227.20;;;;;;5051593;28;20056;-51
2021/03/02 04:34:56;;;;;;;40.92;25.75;;;51.50;2227.20;;;;;;5051484;28;20479;-53
2021/03/02 04:37:22;;;;;;;33.97;21.95;;;51.50;2227.20;;;;;;5051326;28;20036;-52
2021/03/02 04:39:48;;;;;;;39.10;21.77;;;51.60;2227.20;;;;;;5051433;28;20024;-52
2021/03/02 04:42:13;;;;;;;34.63;20.80;;;51.60;2227.20;;;;;;5051480;28;20467;-52
2021/03/02 04:44:39;;;;;;;37.53;22.65;;;51.50;2227.20;;;;;;5051328;28;20379;-52
2021/03/02 04:47:05;;;;;;;42.50;24.45;;;51.60;2227.20;;;;;;5051355;28;20056;-52
2021/03/02 04:49:30;;;;;;;42.00;24.95;;;51.60;2227.20;;;;;;5051237;28;20086;-53
2021/03/02 04:51:56;;;;;;;38.58;23.17;;;51.60;2227.20;;;;;;5050860;28;20032;-52
2021/03/02 04:54:22;;;;;;;37.05;22.00;;;51.70;2227.20;;;;;;5051058;28;20412;-53
2021/03/02 04:56:47;;;;;;;43.33;24.70;;;51.70;2227.20;;;;;;5050545;28;20037;-51
2021/03/02 04:59:13;;;;;;;37.85;22.00;;;51.70;2227.20;;;;;;5050900;28;20075;-52
2021/03/02 05:01:39;;;;;;;36.83;22.02;;;51.80;2227.20;;;;;;5050961;28;20490;-51
2021/03/02 05:04:04;;;;;;;34.17;19.30;;;51.70;2227.20;;;;;;5050732;28;20025;-55
2021/03/02 05:06:31;;;;;;;39.25;20.25;;;51.70;2227.20;;;;;;5051003;28;20032;-51
2021/03/02 05:08:56;;;;;;;40.63;22.80;;;51.50;2227.20;;;;;;5050754;28;20056;-51
2021/03/02 05:11:22;;;;;;;42.28;22.88;;;51.30;2227.20;;;;;;5050625;28;20052;-54
2021/03/02 05:13:48;;;;;;;36.33;21.23;;;51.30;2227.20;;;;;;5051088;28;20029;-52
2021/03/02 05:16:14;;;;;;;34.75;20.30;;;51.30;2227.20;;;;;;5050720;28;20659;-53
2021/03/02 05:18:41;;;;;;;42.08;23.70;;;51.50;2227.20;;;;;;5050570;28;20049;-52
2021/03/02 05:21:07;;;;;;;37.72;23.02;;;51.60;2227.20;;;;;;5049825;28;20427;-55
2021/03/02 05:23:33;;;;;;;45.30;26.63;;;51.40;2227.20;;;;;;5050469;28;20025;-51
2021/03/02 05:25:59;;;;;;;47.58;25.73;;;51.60;2227.20;;;;;;5050586;28;20032;-51
2021/03/02 05:28:24;;;;;;;44.90;27.55;;;51.60;2227.20;;;;;;5050319;28;20044;-51
2021/03/02 05:30:51;;;;;;;47.30;27.45;;;51.70;2227.20;;;;;;5050918;28;20051;-51
2021/03/02 05:33:17;;;;;;;41.10;24.95;;;51.70;2227.20;;;;;;5050393;28;20033;-51
2021/03/02 05:35:42;;;;;;;35.50;21.55;;;51.90;2227.20;;;;;;5050255;28;20074;-52
2021/03/02 05:38:08;;;;;;;41.83;20.48;;;51.90;2227.20;;;;;;5050580;28;20127;-51
2021/03/02 05:40:34;;;;;;;40.40;23.70;;;52.00;2227.20;;;;;;5050232;28;20451;-55
2021/03/02 05:42:59;;;;;;;37.53;22.10;;;51.90;2227.20;;;;;;5050354;28;20376;-52
2021/03/02 05:45:25;;;;;;;39.25;21.50;;;52.10;2227.20;;;;;;5050095;28;20494;-56
2021/03/02 05:47:52;;;;;;;37.97;21.00;;;52.00;2227.20;;;;;;5050424;28;20029;-52
2021/03/02 05:50:18;;;;;;;34.63;22.20;;;52.00;2227.20;;;;;;5050295;28;20032;-52
2021/03/02 05:52:44;;;;;;;44.70;25.98;;;76.80;2227.20;;;;;;5050162;28;20037;-51
2021/03/02 05:55:10;;;;;;;48.58;25.15;;;76.90;2227.20;;;;;;5050251;28;20053;-52
2021/03/02 05:57:38;;;;;;;39.20;22.15;;;77.10;2227.20;;;;;;5049620;28;20043;-53
2021/03/02 06:00:05;;;;;;;39.10;22.73;;;77.10;2227.20;;;;;;5050024;28;20043;-51
2021/03/02 06:02:31;;;;;;;38.38;21.23;;;77.20;2227.20;;;;;;5050084;28;20040;-51
2021/03/02 06:04:57;;;;;;;35.22;21.23;;;77.40;2227.20;;;;;;5050144;28;20032;-51
2021/03/02 06:07:23;;;;;;;42.72;24.23;;;77.20;2227.20;;;;;;5049959;28;20380;-52
2021/03/02 06:09:49;;;;;;;37.00;20.25;;;77.40;2227.20;;;;;;5050100;28;20036;-51
2021/03/02 06:12:15;;;;;;;32.42;20.77;;;77.50;2227.20;;;;;;5049526;28;20455;-51
2021/03/02 06:14:41;;;;;;;41.10;23.63;;;77.50;2227.20;;;;;;5050342;28;20053;-50
2021/03/02 06:17:07;;;;;;;64.00;34.88;;;77.60;2227.20;;;;;;5049883;28;20391;-51
2021/03/02 06:19:48;;;;;;;57.45;31.77;;;102.40;2201.60;;;;;;5049607;28;20073;-51
2021/03/02 06:22:33;;;;;;;46.10;28.17;;;102.40;2201.60;;;;;;5049736;28;20507;-51
2021/03/02 06:24:59;;;;;;;36.03;21.50;;;102.50;2176.00;;;;;;5050001;28;20256;-56
2021/03/02 06:27:25;;;;;;;40.67;22.02;;;102.60;2176.00;;;;;;5049715;28;20052;-53
2021/03/02 06:30:11;;;;;;;38.17;23.85;;;102.90;2124.80;;;;;;5050072;28;20518;-53
2021/03/02 06:32:41;;;;;;;44.15;27.50;;;128.30;2073.60;;;;;;5053350;28;20024;-54
2021/03/02 06:35:08;;;;;;;41.45;25.58;;;154.30;1894.40;;;;;;5053839;28;20029;-55
2021/03/02 06:37:44;;;;;;;64.22;40.47;;;179.60;1792.00;;;;;;5053488;28;20121;-54
2021/03/02 06:40:12;;;;;;;46.38;26.45;;;205.10;1664.00;;;;;;5053874;28;20040;-51
2021/03/02 06:42:43;;;;;;;42.67;31.35;;;205.10;1689.60;;;;;;5053881;28;20432;-51
2021/03/02 06:45:13;;;;;;;42.58;33.30;;;205.40;1664.00;;;;;;5053723;28;20235;-52
2021/03/02 06:47:41;;;;;;;44.80;31.70;;;256.00;1510.40;;;;;;5053451;28;20457;-52
2021/03/02 06:50:13;;;;;;;53.60;37.00;;;281.70;1433.60;;;;;;5053279;28;20025;-52
2021/03/02 06:52:42;;;;;;;57.78;41.08;;;307.60;1356.80;;;;;;5053540;28;20297;-52
2021/03/02 06:55:17;;;;;;;91.50;71.28;;;332.90;1305.60;;;;;;5053376;28;20036;-53
2021/03/02 06:57:45;;;;;;;102.85;70.90;;;358.60;1203.20;;;;;;5052973;28;20124;-52
2021/03/02 07:00:11;;;;;;;140.50;108.50;;;359.20;1126.40;;;;;;5053311;28;20043;-57
2021/03/02 07:02:38;;;;;;;124.95;94.20;;;384.50;1075.20;;;;;;5053212;28;20041;-54
2021/03/02 07:05:05;;;;;;;123.55;90.15;;;384.30;1075.20;;;;;;5053267;28;20056;-53
2021/03/02 07:07:59;;;;;;;95.55;68.00;;;359.00;1126.40;;;;;;5043603;28;20034;-54
2021/03/02 07:10:27;;;;;;;;;;;358.70;1177.60;;;;;;5038318;28;20030;-58
2021/03/02 07:12:57;;;;;;;117.68;84.38;;;332.90;1254.40;;;;;;5033045;28;19912;-55
2021/03/02 07:15:28;;;;;;;101.30;74.15;;;282.50;1305.60;;;;;;5032968;28;20487;-55
2021/03/02 07:17:59;;;;;;;123.18;79.93;;;281.90;1356.80;;;;;;5032799;28;20045;-56
2021/03/02 07:20:27;;;;;;;90.70;62.28;;;256.80;1382.40;;;;;;5032982;28;20042;-55
2021/03/02 07:23:05;;;;;;;114.32;81.40;;;256.50;1408.00;;;;;;5033112;28;20033;-57
2021/03/02 07:25:36;;;;;;;115.50;80.80;;;231.20;1484.80;;;;;;5032665;28;20041;-56
2021/03/02 07:28:04;;;;;;;123.50;82.28;;;230.70;1561.60;;;;;;5032747;28;20041;-53
2021/03/02 07:30:30;;;;;;;164.45;119.47;;;281.80;1408.00;;;;;;5032871;28;20034;-54
2021/03/02 07:32:56;;;;;;;157.50;114.93;;;333.20;1254.40;;;;;;5032707;28;20476;-53
2021/03/02 07:35:23;;;;;;;188.70;138.38;;;384.00;1126.40;;;;;;5032898;28;20434;-54
2021/03/02 07:37:50;;;;;;;191.70;144.20;;;409.80;1049.60;;;;;;5032806;28;20091;-52
2021/03/02 07:40:20;;;;;;;182.55;141.68;;;460.80;972.80;;;;;;5032419;28;20025;-52
2021/03/02 07:42:46;;;;;;;168.77;133.02;;;486.50;870.40;;;;;;5033484;28;20483;-52
2021/03/02 07:45:19;;;;;;;157.30;130.35;;;486.50;870.40;;;;;;5042270;28;20244;-52
2021/03/02 07:47:57;;;;;;;141.65;119.25;;;461.10;947.20;;;;;;5041114;28;20041;-52
2021/03/02 07:50:33;;;;;;;145.65;119.40;;;461.20;921.60;;;;;;5035670;28;20536;-52
2021/03/02 07:53:16;;;;;;;134.48;107.88;;;460.90;947.20;;;;;;5040069;28;20116;-52
2021/03/02 07:55:43;;;;;;;154.32;125.60;;;486.40;896.00;;;;;;5036999;28;20523;-57
2021/03/02 07:58:19;;;;;;;123.32;106.63;;;461.20;947.20;;;;;;5032239;28;20046;-51
2021/03/02 08:00:47;;;;;;;102.43;83.50;;;512.70;793.60;;;;;;5032140;28;20554;-53
2021/03/02 08:03:27;;;;;;;84.55;73.70;;;563.80;742.40;;;;;;5032109;28;20021;-54
2021/03/02 08:05:55;;;;;;;75.13;66.97;;;564.00;742.40;;;;;;5032020;28;20113;-55
2021/03/02 08:08:23;;;;;;;113.13;101.55;;;589.20;716.80;;;;;;5032210;28;20032;-61
2021/03/02 08:10:57;;;;;;;80.90;72.47;;;589.60;691.20;;;;;;5032238;28;20033;-54
2021/03/02 08:13:41;;;;;;;68.93;61.72;;;614.80;665.60;;;;;;5032215;28;20064;-53
2021/03/02 08:16:13;;;;;;;39.75;34.83;;;614.80;665.60;;;;;;5031700;28;20021;-54
2021/03/02 08:18:40;;;;;;;71.03;63.25;;;615.20;640.00;;;;;;5031842;28;20457;-53
2021/03/02 08:21:11;;;;;;;87.43;78.05;;;589.70;691.20;;;;;;5031846;28;20026;-53
2021/03/02 08:23:55;;;;;;;65.80;58.15;;;615.10;665.60;;;;;;5031796;28;20033;-53
2021/03/02 08:26:26;;;;;;;47.47;42.25;;;615.10;665.60;;;;;;5031833;28;20021;-59
2021/03/02 08:29:06;;;;;;;42.03;37.55;;;640.90;588.80;;;;;;5031847;28;20029;-62
2021/03/02 08:31:32;;;;;;;34.15;30.55;;;640.50;614.40;;;;;;5031637;28;20029;-58
2021/03/02 08:33:59;;;;;;;34.30;30.83;;;640.40;614.40;;;;;;5031674;28;20021;-62
2021/03/02 08:36:26;;;;;;;46.65;41.70;;;666.20;588.80;;;;;;5031295;28;20037;-62
2021/03/02 08:38:52;;;;;;;30.67;27.17;;;640.90;614.40;;;;;;5031654;28;20033;-61
2021/03/02 08:41:43;;;;;;;28.63;25.60;;;666.20;563.20;;;;;;5031397;28;20101;-61
2021/03/02 08:44:18;;;;;;;31.58;28.30;;;666.20;563.20;;;;;;5031603;28;20031;-59
2021/03/02 08:46:49;;;;;;;34.75;31.15;;;691.20;563.20;;;;;;5031109;28;20192;-60
2021/03/02 08:49:15;;;;;;;42.83;38.17;;;640.10;614.40;;;;;;5031157;28;20104;-61
2021/03/02 08:51:41;;;;;;;42.65;38.20;;;691.30;537.60;;;;;;5031106;28;20113;-62
2021/03/02 08:54:07;;;;;;;52.58;47.65;;;665.90;588.80;;;;;;5030680;28;20025;-61
2021/03/02 08:56:33;;;;;;;42.90;38.30;;;666.50;563.20;;;;;;5030841;28;20034;-61
2021/03/02 08:59:01;;;;;;;39.22;34.92;;;640.90;563.20;;;;;;5031142;28;20033;-62
2021/03/02 09:01:30;;;;;;;48.25;43.30;;;691.30;537.60;;;;;;5031151;28;20025;-61
2021/03/02 09:04:17;;;;;;;47.13;42.25;;;666.40;563.20;;;;;;5030721;28;20025;-61
2021/03/02 09:06:45;;;;;;;45.83;40.88;;;691.20;563.20;;;;;;5030847;28;20029;-59
2021/03/02 09:09:13;;;;;;;43.72;38.95;;;665.80;563.20;;;;;;5031145;28;20033;-62
2021/03/02 09:11:44;;;;;;;46.22;41.33;;;615.00;640.00;;;;;;5030786;28;20542;-62
2021/03/02 09:14:19;;;;;;;42.47;37.83;;;588.80;716.80;;;;;;5030674;28;20022;-61
2021/03/02 09:16:47;;;;;;;40.20;35.95;;;563.90;716.80;;;;;;5030602;28;20079;-60
2021/03/02 09:19:23;;;;;;;47.63;40.30;;;614.60;640.00;;;;;;5030397;28;20049;-60
2021/03/02 09:22:13;;;;;;;40.03;35.92;;;564.10;716.80;;;;;;5030746;28;20040;-61
2021/03/02 09:24:55;;;;;;;54.67;47.88;;;487.30;819.20;;;;;;4989190;28;20604;-60
2021/03/02 09:27:28;;;;;;;41.40;37.13;;;487.20;819.20;;;;;;4989223;28;20053;-61
2021/03/02 09:29:54;;;;;;;44.10;38.70;;;512.70;742.40;;;;;;4989344;28;20109;-60
2021/03/02 09:32:24;;;;;;;38.92;33.72;;;487.30;793.60;;;;;;4989114;28;20034;-60
2021/03/02 09:34:58;;;;;;;44.63;33.38;;;461.70;844.80;;;;;;4989223;28;20042;-60
2021/03/02 09:37:23;;;;;;;37.95;31.33;;;461.60;896.00;;;;;;4989051;28;20034;-60
2021/03/02 09:39:58;;;;;;;45.88;38.03;;;435.90;972.80;;;;;;4989051;28;20037;-60
2021/03/02 09:42:29;;;;;;;53.33;43.42;;;435.80;921.60;;;;;;4988893;28;20038;-60
2021/03/02 09:44:58;;;;;;;44.00;35.97;;;435.60;947.20;;;;;;4988782;28;20030;-54
2021/03/02 09:47:35;;;;;;;45.25;32.97;;;409.60;1049.60;;;;;;4988976;28;20034;-58
2021/03/02 09:50:03;;;;;;;40.63;31.90;;;359.20;1100.80;;;;;;4986105;28;20030;-61
2021/03/02 09:52:30;;;;;;;55.22;42.75;;;384.20;1049.60;;;;;;4987008;28;20026;-53
2021/03/02 09:55:10;;;;;;;42.17;32.05;;;384.80;1024.00;;;;;;4986550;28;20042;-61
2021/03/02 09:57:53;;;;;;;115.13;88.13;;;409.60;1049.60;;;;;;4986443;28;20053;-58
2021/03/02 10:00:24;;;;;;;54.58;39.35;;;384.60;1049.60;;;;;;4964591;28;20078;-59
2021/03/02 10:02:52;;;;;;;39.45;31.52;;;384.60;1049.60;;;;;;5028232;28;20112;-57
2021/03/02 10:05:54;;;;;;;46.97;32.97;;;384.60;1024.00;;;;;;5027891;28;20037;-55
2021/03/02 10:08:36;;;;;;;53.65;35.72;;;384.60;1100.80;;;;;;5022452;28;20104;-58
2021/03/02 10:11:19;;;;;;;37.13;26.98;;;384.80;1049.60;;;;;;5028345;28;20052;-58
2021/03/02 10:13:54;;;;;;;35.10;23.05;;;384.80;1049.60;;;;;;5027590;28;20065;-58
2021/03/02 10:16:37;;;;;;;35.25;28.13;;;384.70;1049.60;;;;;;5028233;28;20156;-59
2021/03/02 10:19:22;;;;;;;35.40;27.65;;;384.30;1049.60;;;;;;5028160;28;20058;-57
2021/03/02 10:21:52;;;;;;;110.75;69.28;;;359.30;1075.20;;;;;;5028084;28;20080;-56
2021/03/02 10:24:37;;;;;;;38.35;28.65;;;359.30;1075.20;;;;;;5029780;28;20092;-57
2021/03/02 10:27:17;;;;;;;39.42;29.23;;;384.10;1075.20;;;;;;5047532;28;20510;-56
2021/03/02 10:29:44;;;;;;;34.63;24.35;;;359.00;1100.80;;;;;;5046785;28;20425;-53
2021/03/02 10:32:10;;;;;;;46.45;29.98;;;358.90;1100.80;;;;;;5048070;28;20086;-56
2021/03/02 10:34:37;;;;;;;41.97;30.20;;;359.20;1100.80;;;;;;5047793;28;20033;-56
2021/03/02 10:37:07;;;;;;;34.97;24.05;;;359.30;1075.20;;;;;;5047026;28;20037;-56
2021/03/02 10:39:34;;;;;;;105.60;54.88;;;358.80;1100.80;;;;;;5047575;28;20033;-56
2021/03/02 10:42:00;;;;;;;35.78;23.00;;;358.90;1100.80;;;;;;5047719;28;20029;-57
2021/03/02 10:44:26;;;;;;;81.97;46.80;;;358.70;1126.40;;;;;;5047635;28;20025;-56
2021/03/02 10:46:52;;;;;;;48.17;28.00;;;358.60;1126.40;;;;;;5047803;28;20027;-56
2021/03/02 10:49:18;;;;;;;51.15;30.20;;;358.50;1152.00;;;;;;5047498;28;20418;-57
2021/03/02 10:51:43;;;;;;;58.05;41.50;;;358.60;1126.40;;;;;;5047298;28;20025;-57
2021/03/02 10:54:10;;;;;;;56.80;37.40;;;358.60;1100.80;;;;;;5048073;28;20067;-55
2021/03/02 10:56:35;;;;;;;29.85;21.08;;;358.70;1126.40;;;;;;5047652;28;20127;-57
2021/03/02 10:59:01;;;;;;;13.60;10.07;;;358.50;1100.80;;;;;;5047643;28;20662;-56
2021/03/02 11:01:27;;;;;;;23.05;14.98;;;358.50;1100.80;;;;;;5047712;28;20383;-56
2021/03/02 11:03:53;;;;;;;22.35;19.40;;;358.80;1100.80;;;;;;5047139;28;20071;-55
2021/03/02 11:06:21;;;;;;;23.38;14.27;;;358.90;1100.80;;;;;;5047069;28;20077;-55
2021/03/02 11:08:48;;;;;;;32.67;20.80;;;359.10;1100.80;;;;;;5048105;28;20026;-56
2021/03/02 11:11:15;;;;;;;23.42;14.48;;;359.20;1075.20;;;;;;5047452;28;20037;-53
2021/03/02 11:13:42;;;;;;;23.60;16.05;;;384.10;1049.60;;;;;;5046979;28;20104;-52
2021/03/02 11:16:09;;;;;;;20.88;13.27;;;384.10;1049.60;;;;;;5046955;28;20048;-53
2021/03/02 11:18:34;;;;;;;27.48;20.52;;;358.90;1075.20;;;;;;5050549;28;20037;-52
2021/03/02 11:21:00;;;;;;;13.10;9.70;;;359.10;1075.20;;;;;;5051153;28;20031;-53
2021/03/02 11:23:26;;;;;;;13.23;9.90;;;359.30;1100.80;;;;;;5051005;28;20438;-51
2021/03/02 11:25:51;;;;;;;24.92;16.10;;;384.20;1126.40;;;;;;5051030;28;20025;-52
2021/03/02 11:28:17;;;;;;;35.55;25.77;;;359.30;1100.80;;;;;;5050721;28;20033;-55
2021/03/02 11:30:43;;;;;;;13.82;9.43;;;384.00;1100.80;;;;;;5050201;28;20037;-56
2021/03/02 11:33:10;;;;;;;11.63;8.57;;;384.10;1126.40;;;;;;5051101;28;20021;-56
2021/03/02 11:35:36;;;;;;;11.48;8.65;;;384.30;1049.60;;;;;;5050447;28;20121;-60
2021/03/02 11:38:02;;;;;;;13.35;9.93;;;384.40;1075.20;;;;;;5050810;28;20033;-65
2021/03/02 11:40:29;;;;;;;15.43;9.65;;;359.00;1075.20;;;;;;5050781;28;20031;-61
2021/03/02 11:42:56;;;;;;;11.85;8.98;;;358.80;1075.20;;;;;;5050035;28;20029;-52
2021/03/02 11:45:24;;;;;;;14.35;10.25;;;358.70;1075.20;;;;;;5050547;28;20021;-52
2021/03/02 11:47:51;;;;;;;20.50;12.43;;;359.00;1049.60;;;;;;5052068;28;20028;-51
2021/03/02 11:50:18;;;;;;;22.40;15.60;;;359.20;1075.20;;;;;;5051904;28;20071;-51
2021/03/02 11:52:43;;;;;;;21.77;14.30;;;359.10;1075.20;;;;;;5051915;28;20021;-55
2021/03/02 11:55:10;;;;;;;23.92;17.13;;;359.00;1075.20;;;;;;5052161;28;20067;-52
2021/03/02 11:57:36;;;;;;;29.65;16.17;;;333.70;1100.80;;;;;;5051457;28;20048;-57
2021/03/02 12:00:07;;;;;;;18.80;14.48;;;358.50;1100.80;;;;;;5051410;28;20025;-54
2021/03/02 12:02:32;;;;;;;12.32;7.95;;;358.40;1100.80;;;;;;5051771;28;20052;-57
2021/03/02 12:04:58;;;;;;;9.68;7.97;;;358.80;1049.60;;;;;;5051864;28;20479;-56
2021/03/02 12:07:24;;;;;;;10.98;8.48;;;359.00;1100.80;;;;;;5051820;28;20383;-56
2021/03/02 12:09:49;;;;;;;14.38;8.85;;;358.90;1152.00;;;;;;5052080;28;20375;-56
2021/03/02 12:12:15;;;;;;;15.70;11.40;;;359.00;1100.80;;;;;;5051238;28;20356;-52
2021/03/02 12:14:41;;;;;;;13.40;10.18;;;359.20;1049.60;;;;;;5051943;28;20033;-52